Terminal Aerodrome Forecast
Issued by NWS

Home | Current Version | Previous Version | Text Only | Print | Product List | Glossary On
Versions: 1 2 3 4 5 6 7 8 9 10 11 12 13 14 15 16 17 18 19 20 21 22 23 24 25 26
000
FTUS42 KTBW 021500 AAB
TAFPGD
TAF AMD
KPGD 021517Z 0215/0312 10007KT P6SM SCT007 SCT025
      TEMPO 0215/0216 BKN007
     FM022000 04007KT P6SM SCT040
     FM030100 VRB05KT P6SM FEW040
     FM030800 07004KT 3SM BR BKN015=

USA.gov is the U.S. government's official web portal to all federal, state and local government web resources and services.